Time;durP1;ratioP1;P1;durP2;ratioP2;P2;SDS_P1;SDS_P2;PMS_P1;PMS_P2;Temp;Humidity;BMP_temperature;BMP_pressure;BME280_temperature;BME280_humidity;BME280_pressure;Samples;Min_cycle;Max_cycle;Signal;HPM_P1;HPM_P2
2022/04/01 00:00:38;;;;;;;9.90;8.70;;;11.70;61.00;;;;;;5051360;28;20501;-44
2022/04/01 00:03:05;;;;;;;11.03;8.60;;;11.70;61.10;;;;;;5055047;28;20443;-44
2022/04/01 00:05:33;;;;;;;11.30;9.40;;;11.70;60.80;;;;;;5048946;28;20439;-44
2022/04/01 00:07:59;;;;;;;13.60;10.33;;;11.80;60.90;;;;;;5045554;28;20481;-44
2022/04/01 00:10:24;;;;;;;11.33;9.53;;;11.80;60.80;;;;;;5045454;28;20977;-44
2022/04/01 00:12:50;;;;;;;11.90;10.23;;;11.80;60.70;;;;;;5053811;28;21054;-44
2022/04/01 00:15:15;;;;;;;10.50;8.33;;;11.90;60.80;;;;;;5055648;28;20242;-46
2022/04/01 00:17:42;;;;;;;8.80;7.90;;;11.80;60.70;;;;;;5047393;28;20193;-44
2022/04/01 00:20:10;;;;;;;10.93;8.53;;;11.70;60.80;;;;;;5039409;28;20232;-44
2022/04/01 00:22:36;;;;;;;9.93;7.30;;;11.80;60.80;;;;;;5059811;28;20452;-44
2022/04/01 00:25:01;;;;;;;10.00;7.87;;;11.70;60.20;;;;;;5047129;28;21000;-44
2022/04/01 00:27:27;;;;;;;8.83;7.70;;;11.70;60.70;;;;;;5045519;28;20886;-45
2022/04/01 00:29:52;;;;;;;9.03;7.00;;;11.70;60.30;;;;;;5024215;28;20197;-45
2022/04/01 00:32:18;;;;;;;8.40;7.37;;;11.60;59.90;;;;;;5046313;28;20279;-44
2022/04/01 00:34:45;;;;;;;10.37;7.07;;;11.60;60.30;;;;;;5047467;28;20204;-44
2022/04/01 00:37:11;;;;;;;8.23;6.50;;;11.60;60.00;;;;;;5046321;28;20216;-46
2022/04/01 00:39:38;;;;;;;7.20;6.20;;;11.60;59.80;;;;;;5049197;28;20520;-45
2022/04/01 00:42:04;;;;;;;6.90;6.20;;;11.60;59.80;;;;;;5047799;28;20439;-44
2022/04/01 00:44:32;;;;;;;8.30;6.30;;;11.60;60.00;;;;;;5048439;28;20493;-45
2022/04/01 00:47:05;;;;;;;7.47;6.17;;;11.60;59.80;;;;;;5048661;28;20509;-43
2022/04/01 00:49:31;;;;;;;7.60;6.50;;;11.60;59.70;;;;;;5046236;28;20439;-44
2022/04/01 00:52:00;;;;;;;7.60;6.63;;;11.50;59.70;;;;;;5048307;28;20428;-44
2022/04/01 00:54:26;;;;;;;8.70;7.40;;;11.60;59.80;;;;;;5040556;28;20989;-46
2022/04/01 00:56:52;;;;;;;6.70;6.07;;;11.60;59.70;;;;;;5048494;28;20442;-45
2022/04/01 00:59:18;;;;;;;7.10;6.17;;;11.60;59.50;;;;;;5048392;28;20554;-44
2022/04/01 01:01:44;;;;;;;7.87;6.57;;;11.70;59.40;;;;;;5048823;28;21316;-43
2022/04/01 01:04:14;;;;;;;7.00;6.30;;;11.60;59.30;;;;;;5048012;28;20435;-46
2022/04/01 01:06:43;;;;;;;8.13;6.90;;;11.60;59.30;;;;;;5046258;28;20462;-45
2022/04/01 01:09:09;;;;;;;6.90;6.20;;;11.60;59.10;;;;;;5047450;28;20493;-45
2022/04/01 01:11:36;;;;;;;6.47;5.80;;;11.50;58.70;;;;;;5048988;28;20816;-43
2022/04/01 01:14:04;;;;;;;7.63;6.47;;;11.50;59.30;;;;;;5047336;28;20443;-44
2022/04/01 01:16:29;;;;;;;7.43;6.63;;;11.60;58.70;;;;;;5046251;28;21010;-44
2022/04/01 01:19:24;;;;;;;7.03;6.33;;;11.60;58.80;;;;;;5050673;28;20526;-44
2022/04/01 01:21:52;;;;;;;5.57;4.90;;;11.50;58.70;;;;;;5015703;28;20239;-47
2022/04/01 01:24:24;;;;;;;6.27;5.63;;;11.40;58.70;;;;;;5041365;28;20474;-44
2022/04/01 01:26:52;;;;;;;7.33;6.10;;;11.50;58.60;;;;;;5046649;28;20466;-45
2022/04/01 01:29:29;;;;;;;6.93;5.67;;;11.50;58.60;;;;;;5045020;28;20439;-48
2022/04/01 01:31:56;;;;;;;6.07;5.33;;;11.50;58.90;;;;;;5042812;28;20443;-44
2022/04/01 01:34:23;;;;;;;6.97;6.27;;;11.50;58.90;;;;;;5041513;28;20466;-43
2022/04/01 01:36:50;;;;;;;7.90;6.50;;;11.50;58.90;;;;;;5046983;28;20446;-43
2022/04/01 01:39:16;;;;;;;9.40;6.60;;;11.50;59.00;;;;;;5044417;28;20576;-44
2022/04/01 01:41:42;;;;;;;7.43;6.40;;;11.50;58.90;;;;;;5047200;28;20491;-44
2022/04/01 01:44:08;;;;;;;8.10;6.77;;;11.50;58.70;;;;;;5048048;28;20481;-45
2022/04/01 01:46:34;;;;;;;7.60;6.80;;;11.50;58.70;;;;;;5043615;28;20450;-44
2022/04/01 01:49:01;;;;;;;11.67;8.10;;;11.50;58.90;;;;;;5045513;28;20196;-43
2022/04/01 01:56:54;;;;;;;9.13;7.80;;;11.40;59.50;;;;;;5043883;28;20617;-43
2022/04/01 01:59:20;;;;;;;8.30;7.10;;;11.40;59.40;;;;;;5042463;28;20903;-43
2022/04/01 02:01:45;;;;;;;8.60;7.70;;;11.40;59.50;;;;;;5045910;28;20227;-44
2022/04/01 02:04:11;;;;;;;8.37;7.37;;;11.40;59.50;;;;;;5033485;28;20538;-46
2022/04/01 02:06:38;;;;;;;7.17;6.40;;;11.40;59.60;;;;;;5046757;28;20230;-44
2022/04/01 02:09:04;;;;;;;8.37;6.83;;;11.30;59.90;;;;;;5047211;28;20443;-44
2022/04/01 02:11:29;;;;;;;7.80;7.00;;;11.20;60.20;;;;;;5049919;28;21017;-43
2022/04/01 02:13:55;;;;;;;7.57;6.80;;;11.30;60.30;;;;;;5052293;28;20243;-44
2022/04/01 02:16:21;;;;;;;8.37;7.57;;;11.20;59.90;;;;;;5048163;28;20196;-44
2022/04/01 02:18:48;;;;;;;7.43;6.73;;;11.20;59.70;;;;;;5049320;28;20473;-44
2022/04/01 02:21:15;;;;;;;7.60;6.20;;;11.10;59.80;;;;;;5048180;28;20258;-44
2022/04/01 02:23:43;;;;;;;8.90;7.47;;;11.10;59.90;;;;;;5049234;28;20486;-43
2022/04/01 02:26:09;;;;;;;8.53;7.50;;;11.10;60.00;;;;;;5048466;28;20790;-44
2022/04/01 02:28:36;;;;;;;7.90;7.10;;;11.10;59.80;;;;;;5042388;28;20514;-44
2022/04/01 02:31:04;;;;;;;8.17;7.37;;;11.10;59.80;;;;;;5047990;28;20558;-44
2022/04/01 02:33:30;;;;;;;8.53;7.70;;;11.10;59.80;;;;;;5053033;28;20445;-44
2022/04/01 02:35:57;;;;;;;8.67;6.87;;;11.10;59.70;;;;;;5048698;28;20435;-45
2022/04/01 02:38:27;;;;;;;8.10;6.70;;;11.20;59.80;;;;;;5051070;28;20287;-46
2022/04/01 02:40:54;;;;;;;8.27;7.37;;;11.10;59.80;;;;;;5050965;28;20549;-44
2022/04/01 02:43:21;;;;;;;9.00;7.43;;;11.20;59.90;;;;;;5050510;28;20488;-44
2022/04/01 02:45:48;;;;;;;8.87;7.63;;;11.20;59.70;;;;;;5050766;28;20435;-43
2022/04/01 02:48:14;;;;;;;7.93;6.63;;;11.20;59.60;;;;;;5051259;28;20443;-44
2022/04/01 02:50:40;;;;;;;8.23;7.40;;;11.30;59.60;;;;;;5050569;28;20497;-44
2022/04/01 02:53:06;;;;;;;8.30;7.10;;;11.20;59.30;;;;;;5050755;28;20930;-43
2022/04/01 02:55:32;;;;;;;8.57;7.23;;;11.20;59.50;;;;;;5049800;28;20241;-44
2022/04/01 02:57:59;;;;;;;8.57;7.17;;;11.20;59.40;;;;;;5052506;28;20196;-44
2022/04/01 03:00:25;;;;;;;7.63;6.93;;;11.20;59.40;;;;;;5048712;28;20494;-44
2022/04/01 03:02:50;;;;;;;7.70;6.90;;;11.20;59.30;;;;;;5051600;28;20427;-43
2022/04/01 03:05:17;;;;;;;7.37;6.67;;;11.30;59.20;;;;;;5051188;28;20435;-44
2022/04/01 03:07:44;;;;;;;7.73;6.93;;;11.30;59.20;;;;;;5051058;28;20212;-44
2022/04/01 03:10:10;;;;;;;8.93;7.30;;;11.30;59.00;;;;;;5044868;28;20454;-44
2022/04/01 03:12:36;;;;;;;8.37;7.50;;;11.30;59.20;;;;;;5043213;28;20443;-44
2022/04/01 03:15:02;;;;;;;8.80;7.73;;;11.20;59.40;;;;;;5047922;28;20446;-45
2022/04/01 03:17:29;;;;;;;9.30;7.70;;;11.20;59.60;;;;;;5051460;28;20192;-44
2022/04/01 03:19:55;;;;;;;9.50;8.07;;;11.20;59.50;;;;;;5043721;28;20497;-43
2022/04/01 03:22:20;;;;;;;9.57;8.53;;;11.20;59.70;;;;;;5046574;28;20485;-44
2022/04/01 03:24:46;;;;;;;8.30;7.50;;;11.20;59.70;;;;;;5047640;28;20315;-44
2022/04/01 03:27:13;;;;;;;7.67;6.83;;;11.20;59.60;;;;;;5042881;28;20227;-44
2022/04/01 03:29:38;;;;;;;7.00;6.40;;;11.10;59.50;;;;;;5045415;28;20479;-44
2022/04/01 03:32:04;;;;;;;6.83;6.13;;;11.10;59.50;;;;;;5047345;28;20490;-45
2022/04/01 03:34:32;;;;;;;6.70;6.03;;;11.00;59.60;;;;;;5058697;28;20196;-46
2022/04/01 03:36:57;;;;;;;7.10;6.40;;;11.00;59.40;;;;;;5047608;28;20189;-44
2022/04/01 03:39:24;;;;;;;6.27;5.70;;;10.90;59.50;;;;;;5040619;28;20454;-44
2022/04/01 03:41:50;;;;;;;6.20;5.50;;;10.90;59.70;;;;;;5050445;28;20232;-43
2022/04/01 03:44:17;;;;;;;7.63;6.83;;;10.80;59.50;;;;;;5050456;28;20443;-45
2022/04/01 03:46:52;;;;;;;7.73;6.70;;;10.80;59.40;;;;;;5045585;28;20451;-43
2022/04/01 03:49:22;;;;;;;7.20;6.50;;;10.80;59.40;;;;;;5043998;28;20457;-44
2022/04/01 03:51:49;;;;;;;7.50;6.70;;;10.90;59.40;;;;;;5049721;28;20447;-45
2022/04/01 03:54:16;;;;;;;7.10;6.40;;;10.90;59.20;;;;;;5046945;28;20565;-48
2022/04/01 03:56:44;;;;;;;7.53;6.23;;;10.90;59.00;;;;;;5054148;28;20447;-46
2022/04/01 03:59:12;;;;;;;6.90;6.30;;;10.80;58.90;;;;;;5041101;28;20535;-44
2022/04/01 04:01:38;;;;;;;6.53;5.83;;;10.80;59.20;;;;;;5048479;28;20493;-45
2022/04/01 04:04:05;;;;;;;7.20;6.50;;;10.80;59.00;;;;;;5049896;28;20470;-45
2022/04/01 04:06:34;;;;;;;7.67;6.90;;;10.60;59.10;;;;;;5048415;28;20446;-46
2022/04/01 04:09:03;;;;;;;6.83;6.10;;;10.60;59.60;;;;;;5046891;28;20447;-44
2022/04/01 04:11:33;;;;;;;6.60;6.00;;;10.60;59.50;;;;;;5048162;28;20446;-45
2022/04/01 04:14:01;;;;;;;6.80;6.20;;;10.70;59.50;;;;;;5044488;28;20455;-44
2022/04/01 04:16:30;;;;;;;6.63;5.93;;;10.70;59.10;;;;;;5045429;28;20934;-44
2022/04/01 04:19:16;;;;;;;7.63;6.90;;;10.80;59.10;;;;;;5038618;28;20953;-45
2022/04/01 04:22:00;;;;;;;6.30;5.70;;;10.80;59.10;;;;;;5044644;28;20487;-44
2022/04/01 04:24:35;;;;;;;5.63;5.17;;;10.80;59.10;;;;;;5052374;28;20493;-48
2022/04/01 04:27:17;;;;;;;6.20;5.60;;;10.70;59.60;;;;;;5043753;28;20805;-44
2022/04/01 04:29:55;;;;;;;6.73;6.03;;;10.70;59.20;;;;;;5051742;28;20437;-44
2022/04/01 04:32:33;;;;;;;6.77;6.07;;;10.80;59.80;;;;;;5045275;28;20443;-44
2022/04/01 04:35:05;;;;;;;6.87;6.20;;;10.70;59.10;;;;;;5046453;28;20454;-44
2022/04/01 04:37:34;;;;;;;6.00;5.40;;;10.70;59.40;;;;;;5048203;28;20496;-44
2022/04/01 04:40:01;;;;;;;7.07;6.37;;;10.60;59.20;;;;;;5048043;28;20605;-44
2022/04/01 04:42:27;;;;;;;5.73;5.20;;;10.60;59.20;;;;;;5048079;28;20430;-43
2022/04/01 04:44:54;;;;;;;6.83;6.23;;;10.50;59.50;;;;;;5047384;28;20569;-43
2022/04/01 04:47:29;;;;;;;6.53;5.93;;;10.40;59.80;;;;;;5049752;28;20786;-45
2022/04/01 04:50:00;;;;;;;7.60;6.70;;;10.50;59.70;;;;;;5047720;28;20495;-43
2022/04/01 04:52:34;;;;;;;7.07;5.90;;;10.50;59.80;;;;;;5045979;28;20442;-45
2022/04/01 04:55:06;;;;;;;6.63;5.87;;;10.40;59.90;;;;;;5048546;28;20454;-45
2022/04/01 04:57:33;;;;;;;7.57;6.13;;;10.40;60.80;;;;;;5049192;28;20456;-44
2022/04/01 05:00:00;;;;;;;6.27;5.67;;;10.50;59.90;;;;;;5048129;28;20870;-44
2022/04/01 05:02:42;;;;;;;7.20;6.47;;;10.50;59.70;;;;;;5048203;28;20435;-44
2022/04/01 05:05:24;;;;;;;6.73;6.03;;;10.50;59.70;;;;;;5046717;28;20810;-44
2022/04/01 05:08:05;;;;;;;6.40;5.77;;;10.50;59.80;;;;;;5048330;28;20492;-44
2022/04/01 05:10:41;;;;;;;6.90;5.73;;;10.50;59.90;;;;;;5047855;28;20446;-44
2022/04/01 05:13:20;;;;;;;9.03;6.30;;;10.40;59.80;;;;;;5043316;28;20449;-45
2022/04/01 05:15:54;;;;;;;6.50;5.90;;;10.30;60.00;;;;;;5054429;28;20949;-43
2022/04/01 05:18:42;;;;;;;5.20;4.37;;;10.30;60.00;;;;;;5051611;28;20500;-44
2022/04/01 05:21:19;;;;;;;5.97;5.03;;;10.20;60.20;;;;;;5040546;28;20487;-44
2022/04/01 05:23:58;;;;;;;6.37;5.67;;;10.20;60.40;;;;;;5044872;28;20938;-43
2022/04/01 05:26:38;;;;;;;6.63;5.93;;;10.20;60.70;;;;;;5045885;28;20451;-44
2022/04/01 05:29:07;;;;;;;7.07;4.97;;;10.30;60.60;;;;;;5045120;28;20444;-43
2022/04/01 05:31:37;;;;;;;5.60;5.10;;;10.40;60.20;;;;;;5052561;28;20850;-43
2022/04/01 05:34:18;;;;;;;6.40;5.80;;;10.40;59.90;;;;;;5046892;28;20439;-43
2022/04/01 05:36:45;;;;;;;5.43;4.93;;;10.50;59.80;;;;;;5046446;28;20537;-43
2022/04/01 05:39:14;;;;;;;5.33;4.80;;;10.50;59.20;;;;;;5042848;28;20435;-43
2022/04/01 05:41:41;;;;;;;5.40;4.90;;;10.50;59.00;;;;;;5045871;28;20486;-43
2022/04/01 05:44:09;;;;;;;4.83;4.40;;;10.60;58.70;;;;;;5046855;28;20800;-43
2022/04/01 05:46:36;;;;;;;5.20;4.70;;;10.60;58.60;;;;;;5050128;28;20450;-43
2022/04/01 05:49:03;;;;;;;5.87;4.70;;;10.70;58.60;;;;;;5044280;28;20476;-43
2022/04/01 05:51:30;;;;;;;5.17;4.67;;;10.80;58.40;;;;;;5049571;28;22378;-43
2022/04/01 05:53:56;;;;;;;5.17;4.70;;;10.70;58.20;;;;;;5051965;28;20465;-45
2022/04/01 05:56:22;;;;;;;5.80;5.20;;;10.70;58.30;;;;;;5051934;28;20756;-43
2022/04/01 05:58:48;;;;;;;5.10;4.60;;;10.70;58.40;;;;;;5052277;28;20449;-45
2022/04/01 06:01:31;;;;;;;5.63;5.13;;;10.70;58.30;;;;;;5051507;28;20228;-44
2022/04/01 06:04:32;;;;;;;5.90;5.40;;;10.70;58.30;;;;;;5047354;28;20231;-44
2022/04/01 06:07:08;;;;;;;6.00;5.50;;;10.60;58.50;;;;;;5048913;28;20938;-46
2022/04/01 06:10:11;;;;;;;5.47;4.97;;;10.60;58.60;;;;;;5050126;28;20802;-43
2022/04/01 06:12:58;;;;;;;5.60;4.60;;;10.50;58.60;;;;;;5009044;28;20529;-43
2022/04/01 06:15:37;;;;;;;5.57;5.07;;;10.40;58.90;;;;;;5050525;28;20528;-45
2022/04/01 06:18:30;;;;;;;5.20;4.70;;;10.40;58.90;;;;;;5049643;28;20450;-44
2022/04/01 06:21:05;;;;;;;4.80;4.40;;;10.40;59.00;;;;;;5048106;28;20494;-45
2022/04/01 06:23:41;;;;;;;4.90;4.50;;;10.30;58.60;;;;;;5050152;28;20470;-44
2022/04/01 06:26:11;;;;;;;6.20;5.60;;;10.30;58.70;;;;;;5051347;28;20435;-45
2022/04/01 06:28:49;;;;;;;5.77;5.27;;;10.20;58.70;;;;;;5051264;28;20525;-43
2022/04/01 06:31:18;;;;;;;6.50;5.90;;;10.10;59.10;;;;;;5050883;28;20434;-44
2022/04/01 06:34:03;;;;;;;6.97;6.37;;;10.10;59.30;;;;;;5051199;28;20446;-45
2022/04/01 06:36:40;;;;;;;6.77;6.07;;;10.10;59.40;;;;;;5048775;28;20470;-44
2022/04/01 06:39:08;;;;;;;7.40;6.70;;;10.20;59.40;;;;;;5045772;28;20435;-45
2022/04/01 06:41:59;;;;;;;7.20;6.50;;;10.30;58.90;;;;;;5049400;28;20489;-43
2022/04/01 06:44:24;;;;;;;7.00;6.30;;;10.40;59.00;;;;;;5036032;28;20443;-44
2022/04/01 06:46:51;;;;;;;6.27;5.67;;;10.50;58.90;;;;;;5043392;28;20443;-44
2022/04/01 06:49:18;;;;;;;6.80;6.00;;;10.60;58.70;;;;;;5046408;28;20761;-44
2022/04/01 06:51:43;;;;;;;6.43;5.83;;;10.60;58.60;;;;;;5046470;28;20439;-43
2022/04/01 06:54:09;;;;;;;7.33;6.63;;;10.60;58.30;;;;;;5050357;28;20477;-44
2022/04/01 06:56:35;;;;;;;8.10;6.80;;;10.60;58.40;;;;;;5049716;28;20207;-45
2022/04/01 06:59:00;;;;;;;6.80;6.20;;;10.50;58.20;;;;;;5050721;28;20223;-44
2022/04/01 07:01:26;;;;;;;7.27;6.57;;;10.60;58.10;;;;;;5048932;28;20578;-44
2022/04/01 07:03:53;;;;;;;6.60;6.00;;;10.60;58.30;;;;;;5048121;28;20733;-44
2022/04/01 07:06:20;;;;;;;6.70;5.47;;;10.60;58.00;;;;;;5050178;28;20211;-43
2022/04/01 07:08:47;;;;;;;6.97;6.37;;;10.60;58.30;;;;;;5048981;28;20493;-45
2022/04/01 07:11:14;;;;;;;6.40;5.80;;;10.70;58.40;;;;;;5040326;28;20486;-44
2022/04/01 07:13:40;;;;;;;7.00;6.30;;;10.80;58.40;;;;;;5048068;28;20439;-43
2022/04/01 07:16:06;;;;;;;6.83;6.13;;;10.90;58.10;;;;;;5047059;28;20447;-46
2022/04/01 07:18:33;;;;;;;6.70;6.10;;;10.90;57.90;;;;;;5048099;28;20453;-45
2022/04/01 07:20:59;;;;;;;6.40;5.80;;;10.90;58.10;;;;;;5030468;28;20502;-46
2022/04/01 07:23:24;;;;;;;6.93;6.33;;;10.90;58.10;;;;;;5051007;28;20568;-44
2022/04/01 07:25:50;;;;;;;7.67;6.97;;;10.90;58.10;;;;;;5053810;28;20595;-43
2022/04/01 07:28:16;;;;;;;7.30;6.60;;;10.80;57.80;;;;;;5048364;28;20197;-44
2022/04/01 07:30:41;;;;;;;8.73;7.83;;;10.80;57.90;;;;;;5049663;28;20208;-43
2022/04/01 07:33:10;;;;;;;7.77;6.97;;;10.60;58.00;;;;;;5049858;28;20195;-43
2022/04/01 07:35:36;;;;;;;8.53;7.67;;;10.60;58.50;;;;;;5031902;28;22234;-43
2022/04/01 07:38:03;;;;;;;8.17;7.47;;;10.60;58.30;;;;;;5050468;28;20454;-43
2022/04/01 07:40:29;;;;;;;8.30;7.50;;;10.50;58.70;;;;;;5050213;28;20531;-43
2022/04/01 07:42:55;;;;;;;9.33;8.17;;;10.40;58.90;;;;;;5049168;28;20423;-43
2022/04/01 07:45:21;;;;;;;7.80;7.00;;;10.50;59.00;;;;;;5047122;28;20419;-44
2022/04/01 07:47:48;;;;;;;8.30;7.23;;;10.60;59.40;;;;;;5050802;28;20200;-42
2022/04/01 07:50:15;;;;;;;8.00;7.30;;;10.60;58.40;;;;;;5049585;28;20542;-43
2022/04/01 07:52:43;;;;;;;8.63;7.73;;;10.60;58.30;;;;;;5050940;28;21067;-43
2022/04/01 07:55:09;;;;;;;7.93;7.23;;;10.70;58.40;;;;;;5050210;28;20842;-43
2022/04/01 07:57:36;;;;;;;7.90;7.20;;;10.60;57.90;;;;;;5051025;28;20804;-43
2022/04/01 08:00:02;;;;;;;8.43;7.30;;;10.50;58.20;;;;;;5049446;28;20439;-43
2022/04/01 08:02:27;;;;;;;8.63;7.73;;;10.50;58.20;;;;;;5055803;28;20877;-43
2022/04/01 08:04:53;;;;;;;7.50;6.80;;;10.50;58.40;;;;;;5049486;28;20466;-42
2022/04/01 08:07:19;;;;;;;8.13;7.30;;;10.60;58.50;;;;;;5050779;28;20192;-43
2022/04/01 08:09:45;;;;;;;9.30;7.50;;;10.50;58.70;;;;;;5048529;28;20639;-43
2022/04/01 08:12:10;;;;;;;7.53;6.83;;;10.50;58.50;;;;;;5048105;28;20193;-43
2022/04/01 08:14:39;;;;;;;7.60;6.90;;;10.50;58.70;;;;;;5048728;28;20443;-44
2022/04/01 08:17:06;;;;;;;8.10;7.30;;;10.50;58.60;;;;;;5047377;28;20824;-46
2022/04/01 08:19:32;;;;;;;7.90;7.20;;;10.60;58.60;;;;;;5047646;28;21087;-43
2022/04/01 08:21:58;;;;;;;8.33;7.53;;;10.70;58.40;;;;;;5049688;28;20479;-44
2022/04/01 08:24:27;;;;;;;7.60;6.90;;;10.80;58.40;;;;;;5036054;28;20566;-44
2022/04/01 08:26:52;;;;;;;7.23;6.53;;;10.80;58.10;;;;;;5008527;28;20193;-44
2022/04/01 08:29:18;;;;;;;7.77;7.07;;;10.70;57.80;;;;;;5028545;28;20498;-45
2022/04/01 08:31:44;;;;;;;8.57;7.77;;;10.80;58.00;;;;;;5027267;28;20193;-43
2022/04/01 08:34:10;;;;;;;7.70;6.80;;;10.80;57.90;;;;;;5027164;28;20641;-43
2022/04/01 08:36:35;;;;;;;7.10;6.13;;;10.80;57.90;;;;;;5029884;28;20196;-46
2022/04/01 08:39:01;;;;;;;7.37;6.60;;;10.80;58.10;;;;;;5026163;28;21292;-43
2022/04/01 08:41:27;;;;;;;7.37;6.77;;;10.80;58.10;;;;;;5026868;28;20360;-47
2022/04/01 08:43:53;;;;;;;7.37;6.67;;;10.70;58.10;;;;;;5027700;28;20911;-44
2022/04/01 08:46:22;;;;;;;7.40;6.70;;;10.70;58.30;;;;;;5032117;28;20201;-46
2022/04/01 08:48:48;;;;;;;6.30;5.70;;;10.70;58.10;;;;;;5027837;28;20546;-42
2022/04/01 08:51:14;;;;;;;7.23;6.63;;;10.60;58.50;;;;;;5028518;28;20504;-43
2022/04/01 08:53:44;;;;;;;7.50;6.80;;;10.60;58.40;;;;;;5028516;28;20432;-42
2022/04/01 08:56:10;;;;;;;7.13;6.43;;;10.70;58.40;;;;;;5030046;28;21162;-42
2022/04/01 08:58:36;;;;;;;7.10;6.50;;;10.70;58.10;;;;;;5029581;28;20795;-42
2022/04/01 09:01:05;;;;;;;6.90;6.20;;;10.70;57.90;;;;;;5020683;28;20483;-43
2022/04/01 09:03:31;;;;;;;6.93;6.23;;;10.70;58.10;;;;;;5025531;28;20494;-42
2022/04/01 09:05:59;;;;;;;6.83;6.23;;;10.70;58.10;;;;;;5026124;28;20473;-42
2022/04/01 09:08:27;;;;;;;6.57;5.90;;;10.70;58.50;;;;;;5026412;28;20471;-42
2022/04/01 09:11:04;;;;;;;6.57;5.97;;;10.70;58.40;;;;;;5026109;28;20442;-42
2022/04/01 09:13:40;;;;;;;7.30;6.20;;;10.80;58.50;;;;;;5027152;28;21022;-43
2022/04/01 09:16:06;;;;;;;7.50;6.43;;;10.90;58.30;;;;;;5028376;28;20522;-42
2022/04/01 09:18:42;;;;;;;7.10;6.40;;;10.80;58.40;;;;;;5027127;28;20961;-44
2022/04/01 09:21:13;;;;;;;5.53;5.03;;;10.70;57.90;;;;;;5025731;28;20566;-43
2022/04/01 09:23:39;;;;;;;5.87;5.37;;;10.50;58.30;;;;;;5036724;28;20470;-43
2022/04/01 09:26:06;;;;;;;6.03;5.43;;;10.50;58.20;;;;;;5051377;28;20968;-43
2022/04/01 09:28:38;;;;;;;6.00;5.50;;;10.50;58.50;;;;;;5051304;28;20428;-43
2022/04/01 09:31:15;;;;;;;5.87;5.27;;;10.50;58.70;;;;;;5054680;28;20439;-42
2022/04/01 09:33:43;;;;;;;5.13;4.67;;;10.50;58.60;;;;;;5043546;28;20444;-44
2022/04/01 09:36:12;;;;;;;5.43;4.93;;;10.50;58.60;;;;;;5042977;28;20435;-43
2022/04/01 09:38:37;;;;;;;5.10;4.60;;;10.50;58.30;;;;;;5042299;28;20450;-43
2022/04/01 09:41:05;;;;;;;5.70;5.20;;;10.40;58.10;;;;;;5045130;28;20877;-44
2022/04/01 09:43:40;;;;;;;4.93;4.53;;;10.50;58.50;;;;;;5040817;28;20235;-42
2022/04/01 09:46:22;;;;;;;5.17;4.67;;;10.30;58.60;;;;;;5044223;28;20467;-42
2022/04/01 09:48:48;;;;;;;4.70;4.30;;;10.30;58.90;;;;;;5046523;28;20423;-45
2022/04/01 09:51:15;;;;;;;4.83;4.43;;;10.20;59.10;;;;;;5042745;28;21198;-44
2022/04/01 09:53:53;;;;;;;4.60;4.20;;;10.10;59.30;;;;;;5045428;28;20525;-43
2022/04/01 09:56:36;;;;;;;4.47;4.07;;;10.10;59.50;;;;;;5033969;28;20540;-42
2022/04/01 09:59:04;;;;;;;4.83;4.43;;;10.00;59.50;;;;;;5035230;28;20629;-45
2022/04/01 10:01:31;;;;;;;4.37;3.97;;;10.00;59.60;;;;;;5045959;28;20486;-45
2022/04/01 10:03:57;;;;;;;4.60;4.20;;;10.00;59.80;;;;;;5045467;28;20434;-45
2022/04/01 10:06:23;;;;;;;4.40;4.00;;;10.10;59.50;;;;;;5049420;28;20431;-44
2022/04/01 10:08:50;;;;;;;3.93;3.53;;;10.20;59.50;;;;;;5040586;28;20338;-44
2022/04/01 10:11:17;;;;;;;3.60;3.30;;;10.30;59.10;;;;;;5039047;28;20915;-43
2022/04/01 10:13:44;;;;;;;4.07;3.70;;;10.30;59.10;;;;;;5044885;28;20435;-43
2022/04/01 10:16:11;;;;;;;4.97;4.27;;;10.40;58.90;;;;;;5030457;28;20434;-43
2022/04/01 10:18:41;;;;;;;3.87;3.57;;;10.60;58.80;;;;;;5036651;28;20436;-43
2022/04/01 10:21:08;;;;;;;4.27;3.87;;;10.70;58.50;;;;;;5040469;28;20485;-43
2022/04/01 10:23:39;;;;;;;4.23;3.93;;;10.70;58.60;;;;;;5047082;28;20470;-43
2022/04/01 10:26:09;;;;;;;4.20;3.90;;;10.80;58.00;;;;;;5045719;28;20842;-44
2022/04/01 10:28:35;;;;;;;3.30;3.00;;;10.80;57.90;;;;;;5042415;28;20557;-44
2022/04/01 10:31:02;;;;;;;3.20;3.00;;;10.70;57.90;;;;;;5048157;28;20431;-44
2022/04/01 10:33:35;;;;;;;3.70;3.40;;;10.70;58.00;;;;;;5049710;28;20521;-44
2022/04/01 10:36:16;;;;;;;4.13;3.67;;;10.70;58.00;;;;;;5050823;28;20442;-44
2022/04/01 10:38:42;;;;;;;3.60;3.30;;;10.80;57.90;;;;;;5050050;28;20430;-43
2022/04/01 10:41:12;;;;;;;3.27;2.97;;;10.60;57.70;;;;;;5047387;28;20490;-43
2022/04/01 10:43:44;;;;;;;3.50;3.20;;;10.40;58.00;;;;;;5046537;28;20189;-44
2022/04/01 10:46:15;;;;;;;3.53;3.23;;;10.30;58.60;;;;;;5050404;28;20431;-44
2022/04/01 10:52:04;;;;;;;3.20;2.90;;;10.50;59.00;;;;;;5049478;28;20535;-44
2022/04/01 10:54:29;;;;;;;3.07;2.87;;;10.40;58.50;;;;;;5040202;28;20947;-43
2022/04/01 10:56:57;;;;;;;3.13;2.93;;;10.50;58.50;;;;;;5041000;28;20454;-43
2022/04/01 10:59:24;;;;;;;2.90;2.43;;;10.50;58.50;;;;;;5047487;28;20207;-43
2022/04/01 11:01:52;;;;;;;2.70;2.50;;;10.50;58.10;;;;;;5045684;28;20514;-43
2022/04/01 11:04:18;;;;;;;3.60;3.33;;;10.50;57.90;;;;;;5041878;28;20431;-43
2022/04/01 11:06:53;;;;;;;3.50;3.20;;;10.50;57.80;;;;;;5049629;28;20445;-43
2022/04/01 11:09:49;;;;;;;3.90;3.60;;;10.40;57.90;;;;;;5046376;28;20299;-44
2022/04/01 11:12:21;;;;;;;4.60;3.30;;;10.40;58.20;;;;;;5044382;28;20447;-44
2022/04/01 11:17:28;;;;;;;3.20;2.93;;;10.40;58.60;;;;;;5050555;28;20442;-44
2022/04/01 11:20:12;;;;;;;3.03;2.73;;;10.30;58.40;;;;;;5048421;28;21294;-43
2022/04/01 11:22:41;;;;;;;3.30;3.10;;;10.20;58.40;;;;;;5050801;28;20471;-43
2022/04/01 11:25:11;;;;;;;3.30;3.00;;;10.30;58.60;;;;;;5050300;28;20478;-43
2022/04/01 11:27:47;;;;;;;3.43;3.13;;;10.40;58.90;;;;;;5050781;28;20447;-43
2022/04/01 11:30:15;;;;;;;3.10;2.90;;;10.40;58.30;;;;;;5045582;28;20938;-43
2022/04/01 11:32:48;;;;;;;3.43;3.13;;;10.40;58.50;;;;;;5049553;28;20449;-44
2022/04/01 11:35:16;;;;;;;3.97;3.67;;;10.40;58.60;;;;;;5048274;28;20434;-43
2022/04/01 11:37:49;;;;;;;2.70;2.50;;;10.50;58.80;;;;;;5044773;28;20461;-43
2022/04/01 11:40:16;;;;;;;3.40;3.10;;;10.40;58.70;;;;;;5046272;28;20859;-44
2022/04/01 11:43:04;;;;;;;3.37;3.07;;;10.30;58.50;;;;;;5047276;28;20443;-43
2022/04/01 11:45:37;;;;;;;2.93;2.73;;;10.30;58.90;;;;;;5046168;28;20815;-44
2022/04/01 11:48:17;;;;;;;3.30;3.10;;;10.20;59.50;;;;;;5049754;28;20445;-43
2022/04/01 11:50:45;;;;;;;3.53;3.23;;;10.20;59.30;;;;;;5047592;28;20447;-44
2022/04/01 11:53:21;;;;;;;3.50;2.83;;;10.20;58.90;;;;;;5044046;28;21050;-45
2022/04/01 11:55:47;;;;;;;3.90;3.60;;;10.20;58.80;;;;;;5047181;28;20442;-45
2022/04/01 11:58:13;;;;;;;5.63;3.27;;;10.20;59.00;;;;;;5041669;28;20518;-43
2022/04/01 12:00:38;;;;;;;3.97;3.67;;;10.20;59.00;;;;;;5047845;28;20479;-43
2022/04/01 12:03:07;;;;;;;3.73;3.43;;;10.20;59.00;;;;;;5046396;28;20201;-44
2022/04/01 12:05:33;;;;;;;3.10;2.80;;;10.10;58.70;;;;;;5042959;28;20197;-44
2022/04/01 12:10:59;;;;;;;3.10;2.80;;;10.10;58.60;;;;;;5046971;28;20953;-43
2022/04/01 12:13:28;;;;;;;3.40;3.10;;;10.20;58.70;;;;;;5044330;28;20438;-43
2022/04/01 12:15:55;;;;;;;4.33;3.30;;;10.20;58.80;;;;;;5041982;28;20478;-43
2022/04/01 12:18:28;;;;;;;3.87;3.57;;;10.30;59.20;;;;;;5049012;28;20423;-44
2022/04/01 12:20:57;;;;;;;4.70;4.30;;;10.30;58.60;;;;;;5047221;28;20486;-44
2022/04/01 12:23:26;;;;;;;4.63;4.23;;;10.20;58.70;;;;;;5041970;28;20470;-45
2022/04/01 12:25:53;;;;;;;4.07;3.77;;;10.20;58.20;;;;;;5044976;28;20431;-43
2022/04/01 12:28:23;;;;;;;4.47;4.07;;;10.10;58.40;;;;;;5043357;28;20431;-47
2022/04/01 12:30:55;;;;;;;4.50;4.10;;;10.00;58.50;;;;;;5044728;28;20528;-46
2022/04/01 12:33:28;;;;;;;5.10;4.40;;;10.10;58.70;;;;;;5045932;28;20852;-46
2022/04/01 12:35:58;;;;;;;4.80;4.40;;;10.20;58.70;;;;;;5045050;28;20454;-44
2022/04/01 12:38:25;;;;;;;4.40;3.93;;;10.20;58.60;;;;;;5043681;28;20488;-45
2022/04/01 12:40:54;;;;;;;4.33;3.90;;;10.30;58.80;;;;;;5046329;28;20517;-45
2022/04/01 12:43:39;;;;;;;5.23;4.70;;;10.30;58.30;;;;;;5048130;28;20784;-46
2022/04/01 12:46:11;;;;;;;4.23;3.83;;;10.30;58.10;;;;;;5046201;28;20451;-45
2022/04/01 12:48:57;;;;;;;5.47;4.97;;;10.20;58.20;;;;;;5048299;28;20446;-44
2022/04/01 12:51:23;;;;;;;5.80;5.30;;;10.10;58.00;;;;;;5049504;28;20529;-45
2022/04/01 12:54:08;;;;;;;6.70;5.70;;;10.00;58.00;;;;;;5036537;28;20526;-44
2022/04/01 12:56:50;;;;;;;5.97;5.30;;;9.90;59.40;;;;;;5046871;28;20196;-46
2022/04/01 12:59:18;;;;;;;6.70;6.00;;;9.80;59.30;;;;;;5047932;28;20439;-44
2022/04/01 13:01:46;;;;;;;6.23;5.67;;;9.80;59.70;;;;;;5049361;28;21866;-45
2022/04/01 13:04:21;;;;;;;6.10;5.50;;;9.90;59.20;;;;;;5049146;28;20984;-45
2022/04/01 13:07:07;;;;;;;6.07;5.33;;;10.00;58.30;;;;;;5049443;28;20435;-45
2022/04/01 13:09:43;;;;;;;6.10;5.50;;;10.20;58.10;;;;;;5042220;28;20972;-45
2022/04/01 13:12:09;;;;;;;5.90;5.40;;;10.20;58.70;;;;;;5049137;28;20441;-45